createdAt,value
2022-10-28T00:01:18.594Z,91.04
2022-10-28T00:03:49.307Z,91.02
2022-10-28T00:06:19.168Z,91.33
2022-10-28T00:08:47.897Z,91.55
2022-10-28T00:11:18.083Z,91.44
2022-10-28T00:13:47.007Z,91.62
2022-10-28T00:16:18.347Z,91.26
2022-10-28T00:18:47.093Z,91.25
2022-10-28T00:21:19.339Z,91.07
2022-10-28T00:23:47.697Z,91.20
2022-10-28T00:26:17.940Z,91.30
2022-10-28T00:28:47.856Z,91.31
2022-10-28T00:31:19.949Z,91.38
2022-10-28T00:33:48.429Z,91.27
2022-10-28T00:36:18.537Z,91.04
2022-10-28T00:38:48.393Z,91.27
2022-10-28T00:41:22.560Z,91.43
2022-10-28T00:43:53.706Z,91.60
2022-10-28T00:46:28.033Z,91.74
2022-10-28T00:49:01.448Z,91.62
2022-10-28T00:51:33.002Z,91.82
2022-10-28T00:54:01.256Z,91.85
2022-10-28T00:56:39.706Z,91.60
2022-10-28T00:59:12.673Z,91.61
2022-10-28T01:01:42.302Z,91.53
2022-10-28T01:04:17.496Z,91.54
2022-10-28T01:06:53.417Z,91.31
2022-10-28T01:09:21.419Z,91.67
2022-10-28T01:11:57.502Z,92.16
2022-10-28T01:14:40.087Z,92.38
2022-10-28T01:17:31.254Z,92.43
2022-10-28T01:20:44.251Z,92.32
2022-10-28T01:23:22.613Z,92.07
2022-10-28T01:26:22.550Z,91.80
2022-10-28T01:29:15.383Z,91.55
2022-10-28T01:31:50.073Z,91.75
2022-10-28T01:34:28.645Z,91.54
2022-10-28T01:37:01.012Z,91.18
2022-10-28T01:39:35.850Z,91.26
2022-10-28T01:42:15.572Z,91.30
2022-10-28T01:44:49.482Z,91.13
2022-10-28T01:47:24.167Z,91.44
2022-10-28T01:49:57.113Z,91.55
2022-10-28T01:52:28.700Z,91.82
2022-10-28T01:55:01.672Z,91.79
2022-10-28T01:57:32.957Z,91.66
2022-10-28T02:00:02.691Z,91.66
2022-10-28T02:02:42.846Z,91.89
2022-10-28T02:05:39.415Z,92.08
2022-10-28T02:08:22.117Z,92.25
2022-10-28T02:11:03.068Z,92.31
2022-10-28T02:13:44.094Z,92.25
2022-10-28T02:16:20.800Z,92.09
2022-10-28T02:19:02.325Z,91.98
2022-10-28T02:21:40.768Z,91.77
2022-10-28T02:24:17.027Z,91.80
2022-10-28T02:26:52.577Z,91.54
2022-10-28T02:29:30.069Z,91.83
2022-10-28T02:32:01.470Z,91.85
2022-10-28T02:34:34.827Z,91.97
2022-10-28T02:37:07.440Z,92.02
2022-10-28T02:39:41.743Z,91.75
2022-10-28T02:42:14.166Z,91.63
2022-10-28T02:44:49.793Z,91.84
2022-10-28T02:47:21.568Z,91.81
2022-10-28T02:49:56.595Z,91.69
2022-10-28T02:52:28.661Z,91.54
2022-10-28T02:54:59.425Z,91.58
2022-10-28T02:57:33.453Z,91.55
2022-10-28T03:00:03.440Z,91.83
2022-10-28T03:02:31.497Z,91.99
2022-10-28T03:05:01.284Z,92.01
2022-10-28T03:07:29.377Z,92.11
2022-10-28T03:09:57.332Z,92.14
2022-10-28T03:12:25.693Z,92.04
2022-10-28T03:14:53.699Z,92.04
2022-10-28T03:17:21.738Z,91.98
2022-10-28T03:19:49.855Z,92.09
2022-10-28T03:22:19.330Z,92.20
2022-10-28T03:24:47.344Z,92.32
2022-10-28T03:27:15.369Z,92.53
2022-10-28T03:29:45.880Z,92.67
2022-10-28T03:32:14.449Z,92.74
2022-10-28T03:34:42.514Z,92.96
2022-10-28T03:37:10.633Z,93.00
2022-10-28T03:39:40.303Z,92.89
2022-10-28T03:42:08.350Z,92.88
2022-10-28T03:44:36.568Z,92.79
2022-10-28T03:47:04.623Z,92.91
2022-10-28T03:49:32.623Z,92.65
2022-10-28T03:52:00.818Z,92.65
2022-10-28T03:54:28.831Z,92.85
2022-10-28T03:56:58.931Z,93.09
2022-10-28T03:59:27.107Z,93.04
2022-10-28T04:01:55.456Z,93.13
2022-10-28T04:04:28.299Z,93.25
2022-10-28T04:06:58.694Z,93.10
2022-10-28T04:09:27.024Z,93.26
2022-10-28T04:11:55.156Z,93.37
2022-10-28T04:14:24.806Z,93.31
2022-10-28T04:16:52.855Z,93.28
2022-10-28T04:19:21.000Z,93.54
2022-10-28T04:21:50.099Z,93.39
2022-10-28T04:24:18.092Z,93.31
2022-10-28T04:26:46.216Z,93.30
2022-10-28T04:29:14.176Z,93.45
2022-10-28T04:31:45.483Z,93.55
2022-10-28T04:34:15.699Z,93.41
2022-10-28T04:36:44.097Z,93.38
2022-10-28T04:39:12.209Z,93.18
2022-10-28T04:41:41.798Z,93.19
2022-10-28T04:44:09.821Z,93.55
2022-10-28T04:46:38.336Z,93.72
2022-10-28T04:49:08.066Z,93.80
2022-10-28T04:51:36.538Z,93.82
2022-10-28T04:54:05.060Z,93.68
2022-10-28T04:56:33.350Z,93.79
2022-10-28T04:59:01.775Z,93.92
2022-10-28T05:01:29.830Z,93.95
2022-10-28T05:03:58.215Z,93.66
2022-10-28T05:06:27.632Z,93.46
2022-10-28T05:08:55.977Z,93.40
2022-10-28T05:11:24.112Z,93.44
2022-10-28T05:13:53.175Z,93.39
2022-10-28T05:16:21.292Z,93.48
2022-10-28T05:18:49.370Z,93.65
2022-10-28T05:21:17.566Z,93.82
2022-10-28T05:23:47.955Z,93.84
2022-10-28T05:26:16.068Z,93.71
2022-10-28T05:28:44.565Z,93.57
2022-10-28T05:31:12.635Z,93.68
2022-10-28T05:33:41.043Z,93.97
2022-10-28T05:36:09.483Z,94.11
2022-10-28T05:38:41.526Z,93.93
2022-10-28T05:41:13.063Z,93.92
2022-10-28T05:43:41.473Z,94.09
2022-10-28T05:46:10.780Z,94.11
2022-10-28T05:48:39.471Z,94.13
2022-10-28T05:51:07.509Z,94.29
2022-10-28T05:53:35.595Z,94.13
2022-10-28T05:56:03.694Z,94.19
2022-10-28T05:58:33.141Z,94.32
2022-10-28T06:01:01.142Z,94.21
2022-10-28T06:03:31.243Z,94.21
2022-10-28T06:06:00.197Z,94.04
2022-10-28T06:08:28.552Z,94.20
2022-10-28T06:10:55.208Z,94.35
2022-10-28T06:13:23.885Z,94.25
2022-10-28T06:15:54.050Z,94.71
2022-10-28T06:18:23.048Z,94.35
2022-10-28T06:20:52.960Z,94.28
2022-10-28T06:23:21.699Z,94.20
2022-10-28T06:25:50.112Z,94.06
2022-10-28T06:28:18.331Z,94.06
2022-10-28T06:30:46.523Z,94.05
2022-10-28T06:33:16.511Z,94.04
2022-10-28T06:35:44.709Z,94.17
2022-10-28T06:38:13.184Z,94.43
2022-10-28T06:40:41.562Z,94.34
2022-10-28T06:43:11.130Z,93.98
2022-10-28T06:45:39.252Z,94.12
2022-10-28T06:48:08.918Z,93.90
2022-10-28T06:50:38.791Z,93.84
2022-10-28T06:53:06.886Z,93.81
2022-10-28T06:55:34.953Z,93.93
2022-10-28T06:58:04.196Z,93.91
2022-10-28T07:00:34.154Z,93.96
2022-10-28T07:03:02.341Z,94.13
2022-10-28T07:05:30.659Z,94.34
2022-10-28T07:08:00.313Z,94.29
2022-10-28T07:10:28.373Z,94.17
2022-10-28T07:12:56.965Z,93.92
2022-10-28T07:15:25.587Z,94.18
2022-10-28T07:17:55.139Z,94.16
2022-10-28T07:20:24.145Z,93.85
2022-10-28T07:22:57.216Z,94.10
2022-10-28T07:25:26.826Z,94.01
2022-10-28T07:27:55.226Z,94.11
2022-10-28T07:30:24.023Z,93.87
2022-10-28T07:32:52.629Z,93.89
2022-10-28T07:35:21.475Z,94.25
2022-10-28T07:37:50.005Z,94.41
2022-10-28T07:40:18.130Z,94.35
2022-10-28T07:42:48.014Z,94.35
2022-10-28T07:45:17.701Z,94.32
2022-10-28T07:47:46.253Z,93.91
2022-10-28T07:50:14.774Z,93.98
2022-10-28T07:52:43.980Z,93.20
2022-10-28T07:55:13.160Z,93.53
2022-10-28T07:57:41.369Z,93.41
2022-10-28T08:00:11.820Z,93.41
2022-10-28T08:02:40.197Z,93.59
2022-10-28T08:05:08.835Z,93.76
2022-10-28T08:07:40.877Z,93.80
2022-10-28T08:10:09.703Z,93.98
2022-10-28T08:12:37.704Z,93.51
2022-10-28T08:15:09.505Z,93.34
2022-10-28T08:17:39.700Z,93.10
2022-10-28T08:20:08.245Z,93.46
2022-10-28T08:22:36.391Z,93.57
2022-10-28T08:25:04.594Z,93.41
2022-10-28T08:27:32.759Z,93.04
2022-10-28T08:30:01.044Z,93.38
2022-10-28T08:32:29.430Z,93.60
2022-10-28T08:34:59.536Z,93.55
2022-10-28T08:37:27.895Z,93.20
2022-10-28T08:39:55.916Z,92.99
2022-10-28T08:42:36.507Z,93.22
2022-10-28T08:45:18.108Z,93.05
2022-10-28T08:47:57.068Z,92.93
2022-10-28T08:50:31.846Z,92.99
2022-10-28T08:53:02.827Z,93.15
2022-10-28T08:55:33.278Z,92.78
2022-10-28T08:58:11.835Z,92.93
2022-10-28T09:00:48.070Z,92.75
2022-10-28T09:03:22.351Z,92.97
2022-10-28T09:05:57.470Z,92.84
2022-10-28T09:08:28.673Z,92.57
2022-10-28T09:11:21.298Z,92.59
2022-10-28T09:14:06.246Z,92.37
2022-10-28T09:16:42.342Z,92.45
2022-10-28T09:19:20.720Z,92.55
2022-10-28T09:21:55.690Z,92.26
2022-10-28T09:24:30.973Z,92.34
2022-10-28T09:27:03.051Z,92.86
2022-10-28T09:29:44.243Z,92.34
2022-10-28T09:32:24.090Z,92.39
2022-10-28T09:34:57.742Z,92.19
2022-10-28T09:37:30.606Z,92.45
2022-10-28T09:40:03.973Z,92.26
2022-10-28T09:42:36.197Z,92.34
2022-10-28T09:45:07.387Z,91.92
2022-10-28T09:47:39.582Z,91.88
2022-10-28T09:50:18.371Z,91.60
2022-10-28T09:52:56.591Z,92.15
2022-10-28T09:55:25.053Z,92.07
2022-10-28T09:57:53.366Z,92.04
2022-10-28T10:00:21.901Z,92.18
2022-10-28T10:02:51.851Z,91.89
2022-10-28T10:05:20.357Z,92.20
2022-10-28T10:07:53.742Z,92.63
2022-10-28T10:10:25.270Z,92.47
2022-10-28T10:12:57.354Z,91.91
2022-10-28T10:15:31.354Z,91.81
2022-10-28T10:18:02.127Z,91.58
2022-10-28T10:20:46.243Z,91.62
2022-10-28T10:23:24.474Z,91.43
2022-10-28T10:26:06.837Z,92.40
2022-10-28T10:28:42.982Z,92.14
2022-10-28T10:31:19.665Z,91.73
2022-10-28T10:33:51.469Z,92.05
2022-10-28T10:36:23.801Z,91.69
2022-10-28T10:38:55.971Z,92.07
2022-10-28T10:41:37.072Z,91.96
2022-10-28T10:44:26.449Z,91.81
2022-10-28T10:47:21.057Z,91.92
2022-10-28T10:49:49.914Z,91.96
2022-10-28T10:52:21.066Z,91.77
2022-10-28T10:55:01.181Z,91.43
2022-10-28T10:57:29.882Z,91.38
2022-10-28T10:59:58.709Z,91.27
2022-10-28T11:02:29.623Z,91.68
2022-10-28T11:05:00.139Z,91.17
2022-10-28T11:07:29.191Z,91.16
2022-10-28T11:09:59.013Z,90.89
2022-10-28T11:12:30.381Z,91.32
2022-10-28T11:15:21.374Z,91.15
2022-10-28T11:17:57.094Z,90.94
2022-10-28T11:20:28.529Z,90.31
2022-10-28T11:23:13.819Z,90.76
2022-10-28T11:25:45.744Z,90.96
2022-10-28T11:28:46.175Z,90.69
2022-10-28T11:31:34.285Z,90.88
2022-10-28T11:34:15.630Z,91.05
2022-10-28T11:37:05.504Z,90.89
2022-10-28T11:39:36.799Z,90.72
2022-10-28T11:42:30.036Z,91.03
2022-10-28T11:45:10.389Z,91.05
2022-10-28T11:48:07.636Z,90.81
2022-10-28T11:50:47.822Z,90.77
2022-10-28T11:53:30.227Z,91.01
2022-10-28T11:56:04.427Z,91.24
2022-10-28T11:58:42.611Z,91.10
2022-10-28T12:01:20.481Z,91.12
2022-10-28T12:04:10.086Z,91.34
2022-10-28T12:06:54.635Z,91.28
2022-10-28T12:09:29.410Z,91.06
2022-10-28T12:12:11.112Z,91.35
2022-10-28T12:14:50.596Z,91.07
2022-10-28T12:17:23.803Z,91.43
2022-10-28T12:20:00.944Z,91.64
2022-10-28T12:22:32.820Z,91.68
2022-10-28T12:25:08.523Z,91.77
2022-10-28T12:27:40.711Z,91.66
2022-10-28T12:30:21.508Z,91.91
2022-10-28T12:32:53.434Z,91.73
2022-10-28T12:35:26.051Z,91.52
2022-10-28T12:38:01.580Z,91.33
2022-10-28T12:40:32.937Z,91.58
2022-10-28T12:43:06.750Z,91.65
2022-10-28T12:45:36.953Z,91.52
2022-10-28T12:48:15.077Z,91.32
2022-10-28T12:50:48.490Z,92.06
2022-10-28T12:53:35.582Z,91.83
2022-10-28T12:56:12.516Z,91.77
2022-10-28T12:58:54.945Z,91.96
2022-10-28T13:01:26.898Z,92.12
2022-10-28T13:03:55.584Z,92.04
2022-10-28T13:07:02.477Z,91.66
2022-10-28T13:09:48.509Z,92.21
2022-10-28T13:12:50.108Z,92.33
2022-10-28T13:15:52.890Z,92.12
2022-10-28T13:18:55.821Z,92.16
2022-10-28T13:21:41.505Z,92.67
2022-10-28T13:24:21.249Z,92.48
2022-10-28T13:26:50.329Z,92.40
2022-10-28T13:29:23.676Z,92.34
2022-10-28T13:31:52.439Z,92.36
2022-10-28T13:34:23.962Z,91.86
2022-10-28T13:36:58.070Z,92.46
2022-10-28T13:39:41.420Z,92.59
2022-10-28T13:42:32.413Z,92.11
2022-10-28T13:45:02.059Z,92.73
2022-10-28T13:47:32.272Z,92.73
2022-10-28T13:50:24.228Z,92.65
2022-10-28T13:53:43.738Z,92.39
2022-10-28T13:56:32.245Z,92.72
2022-10-28T13:59:02.964Z,92.70
2022-10-28T14:02:01.366Z,92.57
2022-10-28T14:04:39.703Z,92.67
2022-10-28T14:07:22.742Z,92.79
2022-10-28T14:09:58.468Z,92.84
2022-10-28T14:12:36.494Z,93.04
2022-10-28T14:15:18.217Z,92.76
2022-10-28T14:17:50.693Z,92.86
2022-10-28T14:20:34.605Z,93.08
2022-10-28T14:23:42.673Z,93.33
2022-10-28T14:26:14.690Z,93.18
2022-10-28T14:28:56.270Z,93.25
2022-10-28T14:31:45.094Z,93.49
2022-10-28T14:34:45.153Z,93.39
2022-10-28T14:37:53.800Z,93.52
2022-10-28T14:40:37.439Z,93.73
2022-10-28T14:43:30.342Z,93.67
2022-10-28T14:46:13.964Z,93.59
2022-10-28T14:48:50.345Z,93.69
2022-10-28T14:51:21.354Z,93.74
2022-10-28T14:53:53.089Z,93.72
2022-10-28T14:56:26.864Z,93.60
2022-10-28T14:58:57.933Z,93.58
2022-10-28T15:01:28.895Z,93.58
2022-10-28T15:04:06.610Z,93.78
2022-10-28T15:06:39.072Z,93.89
2022-10-28T15:09:14.493Z,93.79
2022-10-28T15:11:46.201Z,93.69
2022-10-28T15:14:16.986Z,93.73
2022-10-28T15:16:49.460Z,93.60
2022-10-28T15:19:21.124Z,93.56
2022-10-28T15:22:30.811Z,93.40
2022-10-28T15:25:08.822Z,93.58
2022-10-28T15:27:40.585Z,93.34
2022-10-28T15:30:15.933Z,93.22
2022-10-28T15:32:49.595Z,93.23
2022-10-28T15:35:38.223Z,93.27
2022-10-28T15:38:33.600Z,93.21
2022-10-28T15:41:02.160Z,93.39
2022-10-28T15:43:32.689Z,93.09
2022-10-28T15:46:12.231Z,93.20
2022-10-28T15:48:40.528Z,93.53
2022-10-28T15:51:16.451Z,93.68
2022-10-28T15:53:45.101Z,93.85
2022-10-28T15:56:25.283Z,93.74
2022-10-28T15:59:10.149Z,93.66
2022-10-28T16:01:41.855Z,93.81
2022-10-28T16:04:43.797Z,93.47
2022-10-28T16:07:12.207Z,93.69
2022-10-28T16:09:46.688Z,93.66
2022-10-28T16:12:17.144Z,93.70
2022-10-28T16:14:48.935Z,93.80
2022-10-28T16:17:19.425Z,94.02
2022-10-28T16:19:54.144Z,93.94
2022-10-28T16:22:30.415Z,93.86
2022-10-28T16:24:58.927Z,93.79
2022-10-28T16:27:28.909Z,93.67
2022-10-28T16:30:00.467Z,93.60
2022-10-28T16:32:31.812Z,93.53
2022-10-28T16:35:02.857Z,93.68
2022-10-28T16:37:33.945Z,93.80
2022-10-28T16:40:03.506Z,93.94
2022-10-28T16:42:31.890Z,94.23
2022-10-28T16:45:01.763Z,94.16
2022-10-28T16:47:30.642Z,93.76
2022-10-28T16:49:58.826Z,93.45
2022-10-28T16:52:28.870Z,93.58
2022-10-28T16:54:58.916Z,93.64
2022-10-28T16:57:29.763Z,93.40
2022-10-28T16:59:57.955Z,93.43
2022-10-28T17:02:30.501Z,93.57
2022-10-28T17:04:59.409Z,93.71
2022-10-28T17:07:27.994Z,93.63
2022-10-28T17:09:57.016Z,93.42
2022-10-28T17:12:26.545Z,93.62
2022-10-28T17:14:54.881Z,93.89
2022-10-28T17:17:22.998Z,93.88
2022-10-28T17:19:52.460Z,93.87
2022-10-28T17:22:20.819Z,93.62
2022-10-28T17:24:48.823Z,93.37
2022-10-28T17:27:17.045Z,93.41
2022-10-28T17:29:45.080Z,93.62
2022-10-28T17:32:13.137Z,93.65
2022-10-28T17:34:44.195Z,94.05
2022-10-28T17:37:13.734Z,93.79
2022-10-28T17:39:43.522Z,93.53
2022-10-28T17:42:11.801Z,93.63
2022-10-28T17:44:40.144Z,93.87
2022-10-28T17:47:08.269Z,93.86
2022-10-28T17:49:36.598Z,94.17
2022-10-28T17:52:04.743Z,94.09
2022-10-28T17:54:34.286Z,94.19
2022-10-28T17:57:07.633Z,94.22
2022-10-28T17:59:35.777Z,94.27
2022-10-28T18:02:05.172Z,94.37
2022-10-28T18:04:33.344Z,94.34
2022-10-28T18:07:01.811Z,94.17
2022-10-28T18:09:32.034Z,94.16
2022-10-28T18:12:04.034Z,93.93
2022-10-28T18:14:32.202Z,93.74
2022-10-28T18:17:00.656Z,93.71
2022-10-28T18:19:28.908Z,93.87
2022-10-28T18:21:57.065Z,93.84
2022-10-28T18:24:29.322Z,94.04
2022-10-28T18:26:58.310Z,94.24
2022-10-28T18:29:29.251Z,94.45
2022-10-28T18:31:58.217Z,94.67
2022-10-28T18:34:27.181Z,94.70
2022-10-28T18:36:55.937Z,94.45
2022-10-28T18:39:24.276Z,94.38
2022-10-28T18:41:52.712Z,94.14
2022-10-28T18:44:27.316Z,94.11
2022-10-28T18:46:58.684Z,94.00
2022-10-28T18:49:28.145Z,94.20
2022-10-28T18:52:00.217Z,94.40
2022-10-28T18:54:30.896Z,94.27
2022-10-28T18:57:01.997Z,94.11
2022-10-28T18:59:30.789Z,94.07
2022-10-28T19:02:00.915Z,94.03
2022-10-28T19:04:29.311Z,93.86
2022-10-28T19:06:58.317Z,93.88
2022-10-28T19:09:27.098Z,93.84
2022-10-28T19:11:55.415Z,93.91
2022-10-28T19:14:23.566Z,94.00
2022-10-28T19:16:51.738Z,94.02
2022-10-28T19:19:21.343Z,94.19
2022-10-28T19:21:51.079Z,94.22
2022-10-28T19:24:19.186Z,94.08
2022-10-28T19:26:47.151Z,94.14
2022-10-28T19:29:15.443Z,94.19
2022-10-28T19:31:43.561Z,94.29
2022-10-28T19:34:11.983Z,94.40
2022-10-28T19:36:41.800Z,94.28
2022-10-28T19:39:09.879Z,94.17
2022-10-28T19:41:37.909Z,94.39
2022-10-28T19:44:06.240Z,94.55
2022-10-28T19:46:35.797Z,94.39
2022-10-28T19:49:06.160Z,94.59
2022-10-28T19:51:35.794Z,94.30
2022-10-28T19:54:07.204Z,94.46
2022-10-28T19:56:36.826Z,94.57
2022-10-28T19:59:08.020Z,94.48
2022-10-28T20:01:38.727Z,94.30
2022-10-28T20:04:07.608Z,94.34
2022-10-28T20:06:37.719Z,94.42
2022-10-28T20:09:08.277Z,94.63
2022-10-28T20:11:38.901Z,94.81
2022-10-28T20:14:10.803Z,95.04
2022-10-28T20:16:39.917Z,95.03
2022-10-28T20:19:07.955Z,94.84
2022-10-28T20:21:37.318Z,94.96
2022-10-28T20:24:08.601Z,95.06
2022-10-28T20:26:40.747Z,95.04
2022-10-28T20:29:10.028Z,95.03
2022-10-28T20:31:40.117Z,95.09
2022-10-28T20:34:10.341Z,95.17
2022-10-28T20:36:41.704Z,95.14
2022-10-28T20:39:14.427Z,95.16
2022-10-28T20:41:46.053Z,95.12
2022-10-28T20:44:16.874Z,94.97
2022-10-28T20:46:48.007Z,94.88
2022-10-28T20:49:17.582Z,94.92
2022-10-28T20:51:45.963Z,94.92
2022-10-28T20:54:15.357Z,94.72
2022-10-28T20:56:43.409Z,94.70
2022-10-28T20:59:11.625Z,94.61
2022-10-28T21:01:41.969Z,94.68
2022-10-28T21:04:11.794Z,94.61
2022-10-28T21:06:40.350Z,94.68
2022-10-28T21:09:09.308Z,94.59
2022-10-28T21:11:39.061Z,94.50
2022-10-28T21:14:09.222Z,94.38
2022-10-28T21:16:37.213Z,94.42
2022-10-28T21:19:05.340Z,94.55
2022-10-28T21:21:33.378Z,94.58
2022-10-28T21:24:01.378Z,94.67
2022-10-28T21:26:29.434Z,94.78
2022-10-28T21:28:59.515Z,94.67
2022-10-28T21:31:27.668Z,94.64
2022-10-28T21:33:55.746Z,94.68
2022-10-28T21:36:24.153Z,94.85
2022-10-28T21:38:55.071Z,94.84
2022-10-28T21:41:23.648Z,94.62
2022-10-28T21:43:53.042Z,94.58
2022-10-28T21:46:24.229Z,94.57
2022-10-28T21:48:53.647Z,94.38
2022-10-28T21:51:22.007Z,94.43
2022-10-28T21:53:51.128Z,94.30
2022-10-28T21:56:20.953Z,94.41
2022-10-28T21:58:50.200Z,94.57
2022-10-28T22:01:20.311Z,94.46
2022-10-28T22:03:50.370Z,94.24
2022-10-28T22:06:19.675Z,94.09
2022-10-28T22:08:47.903Z,93.94
2022-10-28T22:11:18.207Z,93.62
2022-10-28T22:13:46.655Z,93.29
2022-10-28T22:16:17.537Z,92.87
2022-10-28T22:18:49.161Z,93.52
2022-10-28T22:21:19.439Z,93.77
2022-10-28T22:23:47.604Z,93.96
2022-10-28T22:26:17.566Z,93.50
2022-10-28T22:28:45.822Z,93.55
2022-10-28T22:31:16.219Z,93.74
2022-10-28T22:36:21.817Z,93.78
2022-10-28T22:38:51.353Z,93.56
2022-10-28T22:41:21.142Z,93.57
2022-10-28T22:43:51.158Z,93.61
2022-10-28T22:46:19.778Z,93.42
2022-10-28T22:48:51.745Z,93.25
2022-10-28T22:51:22.458Z,93.46
2022-10-28T22:53:50.757Z,93.36
2022-10-28T22:56:21.760Z,93.42
2022-10-28T22:58:53.566Z,93.38
2022-10-28T23:01:22.429Z,93.69
2022-10-28T23:03:53.161Z,93.78
2022-10-28T23:06:23.910Z,93.75
2022-10-28T23:08:52.926Z,93.85
2022-10-28T23:11:23.009Z,94.12
2022-10-28T23:13:52.801Z,94.26
2022-10-28T23:16:22.688Z,94.36
2022-10-28T23:18:52.726Z,94.28
2022-10-28T23:21:24.580Z,94.23
2022-10-28T23:23:56.012Z,93.97
2022-10-28T23:26:24.630Z,93.96
2022-10-28T23:28:53.760Z,94.19
2022-10-28T23:31:22.572Z,94.18
2022-10-28T23:33:51.233Z,94.39
2022-10-28T23:36:19.397Z,94.56
2022-10-28T23:38:49.216Z,94.61
2022-10-28T23:41:18.874Z,94.70
2022-10-28T23:43:48.783Z,94.77
2022-10-28T23:46:18.231Z,94.76
2022-10-28T23:48:47.145Z,94.62
2022-10-28T23:51:15.500Z,94.56
2022-10-28T23:53:44.443Z,94.58
2022-10-28T23:56:14.059Z,94.57
2022-10-28T23:58:42.139Z,94.53
